Time;durP1;ratioP1;P1;durP2;ratioP2;P2;SDS_P1;SDS_P2;PMS_P1;PMS_P2;Temp;Humidity;BMP_temperature;BMP_pressure;BME280_temperature;BME280_humidity;BME280_pressure;Samples;Min_cycle;Max_cycle;Signal;HPM_P1;HPM_P2
2022/11/08 00:01:31;;;;;;;0.30;0.30;;;;;;;;;;1795577;80;26316;-55
2022/11/08 00:03:59;;;;;;;0.30;0.30;;;;;;;;;;1792783;80;26288;-57
2022/11/08 00:14:45;;;;;;;0.30;0.30;;;;;;;;;;1795988;80;26337;-56
2022/11/08 00:17:14;;;;;;;0.20;0.20;;;;;;;;;;1795299;80;26355;-55
2022/11/08 00:19:42;;;;;;;0.20;0.20;;;;;;;;;;1797926;80;26305;-53
2022/11/08 00:22:10;;;;;;;0.37;0.20;;;;;;;;;;1797853;80;26352;-52
2022/11/08 00:24:37;;;;;;;0.30;0.30;;;;;;;;;;1797925;80;26318;-55
2022/11/08 00:27:05;;;;;;;0.30;0.20;;;;;;;;;;1796288;80;26233;-55
2022/11/08 00:29:36;;;;;;;0.20;0.20;;;;;;;;;;1797003;80;26316;-55
2022/11/08 00:32:04;;;;;;;0.13;0.13;;;;;;;;;;1796639;80;26308;-52
2022/11/08 00:34:35;;;;;;;0.15;0.15;;;;;;;;;;1797437;80;26276;-55
2022/11/08 00:37:03;;;;;;;0.20;0.20;;;;;;;;;;1794310;80;26288;-56
2022/11/08 00:39:30;;;;;;;0.10;0.10;;;;;;;;;;1796943;80;26366;-54
2022/11/08 00:41:57;;;;;;;0.60;0.23;;;;;;;;;;1801459;78;26288;-56
2022/11/08 00:44:24;;;;;;;0.20;0.20;;;;;;;;;;1797425;80;26303;-55
2022/11/08 00:46:52;;;;;;;0.25;0.20;;;;;;;;;;1797603;80;26291;-54
2022/11/08 00:49:19;;;;;;;0.10;0.10;;;;;;;;;;1795193;80;26768;-54
2022/11/08 00:51:46;;;;;;;0.20;0.20;;;;;;;;;;1787913;79;26321;-54
2022/11/08 00:54:15;;;;;;;0.20;0.20;;;;;;;;;;1784644;80;26322;-53
2022/11/08 00:56:42;;;;;;;0.20;0.20;;;;;;;;;;1788533;80;26750;-55
2022/11/08 00:59:11;;;;;;;0.10;0.10;;;;;;;;;;1790211;80;26350;-53
2022/11/08 01:01:39;;;;;;;0.10;0.10;;;;;;;;;;1792895;80;26290;-56
2022/11/08 01:04:06;;;;;;;0.20;0.20;;;;;;;;;;1785297;80;27340;-54
2022/11/08 01:06:34;;;;;;;0.30;0.20;;;;;;;;;;1778689;80;26338;-55
2022/11/08 01:09:01;;;;;;;0.20;0.20;;;;;;;;;;1792956;80;26751;-56
2022/11/08 01:11:29;;;;;;;0.10;0.10;;;;;;;;;;1790780;80;26282;-55
2022/11/08 01:13:57;;;;;;;0.20;0.20;;;;;;;;;;1785796;80;26633;-54
2022/11/08 01:16:27;;;;;;;0.17;0.10;;;;;;;;;;1786233;80;26719;-55
2022/11/08 01:18:55;;;;;;;0.10;0.10;;;;;;;;;;1790781;80;26654;-55
2022/11/08 01:21:23;;;;;;;0.10;0.10;;;;;;;;;;1784577;80;26841;-55
2022/11/08 01:23:50;;;;;;;0.30;0.20;;;;;;;;;;1783406;80;26355;-56
2022/11/08 01:26:19;;;;;;;0.10;0.10;;;;;;;;;;1791108;80;26365;-54
2022/11/08 01:28:47;;;;;;;0.08;0.08;;;;;;;;;;1792109;80;26750;-56
2022/11/08 01:31:18;;;;;;;0.20;0.20;;;;;;;;;;1787934;80;26382;-54
2022/11/08 01:33:46;;;;;;;0.20;0.20;;;;;;;;;;1786239;80;26870;-55
2022/11/08 01:36:14;;;;;;;0.10;0.10;;;;;;;;;;1781590;80;26278;-54
2022/11/08 01:38:42;;;;;;;0.30;0.30;;;;;;;;;;1785432;80;26853;-52
2022/11/08 01:41:13;;;;;;;0.13;0.13;;;;;;;;;;1792219;80;26270;-53
2022/11/08 01:43:42;;;;;;;0.10;0.10;;;;;;;;;;1785678;80;26508;-54
2022/11/08 01:46:11;;;;;;;0.20;0.20;;;;;;;;;;1774544;80;26328;-56
2022/11/08 01:48:39;;;;;;;0.10;0.10;;;;;;;;;;1780521;80;26367;-54
2022/11/08 01:51:08;;;;;;;0.10;0.10;;;;;;;;;;1791687;78;26337;-51
2022/11/08 01:53:36;;;;;;;0.10;0.10;;;;;;;;;;1794055;79;26351;-56
2022/11/08 01:56:03;;;;;;;0.03;0.03;;;;;;;;;;1783282;80;26280;-53
2022/11/08 01:58:32;;;;;;;0.20;0.20;;;;;;;;;;1795275;80;27522;-54
2022/11/08 02:01:01;;;;;;;0.13;0.13;;;;;;;;;;1794033;80;26296;-52
2022/11/08 02:03:30;;;;;;;0.10;0.10;;;;;;;;;;1795782;80;26370;-53
2022/11/08 02:05:57;;;;;;;0.10;0.10;;;;;;;;;;1795775;80;26316;-54
2022/11/08 02:08:26;;;;;;;0.10;0.10;;;;;;;;;;1796545;80;26722;-54
2022/11/08 02:10:53;;;;;;;0.00;0.00;;;;;;;;;;1792033;80;26724;-57
2022/11/08 02:13:22;;;;;;;0.10;0.10;;;;;;;;;;1793809;80;26330;-54
2022/11/08 02:15:49;;;;;;;0.13;0.13;;;;;;;;;;1787556;80;26331;-53
2022/11/08 02:18:18;;;;;;;0.00;0.00;;;;;;;;;;1796296;80;26284;-55
2022/11/08 02:20:50;;;;;;;0.20;0.10;;;;;;;;;;1773755;78;25820;-55
2022/11/08 02:23:19;;;;;;;0.00;0.00;;;;;;;;;;1795066;79;26374;-54
2022/11/08 02:25:46;;;;;;;0.10;0.10;;;;;;;;;;1793138;78;26838;-53
2022/11/08 02:28:13;;;;;;;0.10;0.10;;;;;;;;;;1796408;80;26280;-55
2022/11/08 02:30:41;;;;;;;0.10;0.10;;;;;;;;;;1796190;80;26315;-54
2022/11/08 02:33:19;;;;;;;0.10;0.10;;;;;;;;;;1788272;80;26898;-52
2022/11/08 02:35:48;;;;;;;0.00;0.00;;;;;;;;;;1795634;78;26309;-54
2022/11/08 02:38:16;;;;;;;0.45;0.42;;;;;;;;;;1772042;80;26306;-52
2022/11/08 02:40:47;;;;;;;0.10;0.10;;;;;;;;;;1796406;80;26276;-53
2022/11/08 02:43:14;;;;;;;0.10;0.10;;;;;;;;;;1795893;80;26331;-56
2022/11/08 02:45:42;;;;;;;0.00;0.00;;;;;;;;;;1796007;80;26353;-56
2022/11/08 02:48:09;;;;;;;0.05;0.05;;;;;;;;;;1792706;79;26281;-54
2022/11/08 02:50:37;;;;;;;0.10;0.10;;;;;;;;;;1794050;80;26291;-54
2022/11/08 02:53:04;;;;;;;0.05;0.05;;;;;;;;;;1797121;78;27519;-55
2022/11/08 02:55:32;;;;;;;1.40;0.10;;;;;;;;;;1791969;80;26303;-54
2022/11/08 02:58:00;;;;;;;0.03;0.03;;;;;;;;;;1791919;80;26297;-55
2022/11/08 03:00:27;;;;;;;0.10;0.10;;;;;;;;;;1785302;80;26292;-54
2022/11/08 03:02:56;;;;;;;0.00;0.00;;;;;;;;;;1791811;80;26273;-54
2022/11/08 03:05:24;;;;;;;0.00;0.00;;;;;;;;;;1776695;80;26390;-55
2022/11/08 03:07:52;;;;;;;0.20;0.20;;;;;;;;;;1782733;79;26386;-55
2022/11/08 03:10:21;;;;;;;0.05;0.05;;;;;;;;;;1790898;80;26726;-56
2022/11/08 03:12:50;;;;;;;0.20;0.20;;;;;;;;;;1791364;80;26354;-55
2022/11/08 03:15:17;;;;;;;0.08;0.08;;;;;;;;;;1791162;80;26289;-54
2022/11/08 03:17:44;;;;;;;0.10;0.10;;;;;;;;;;1791809;78;26348;-55
2022/11/08 03:20:11;;;;;;;0.10;0.10;;;;;;;;;;1787175;78;26360;-55
2022/11/08 03:22:39;;;;;;;0.20;0.10;;;;;;;;;;1790943;80;26277;-52
2022/11/08 03:25:06;;;;;;;0.13;0.10;;;;;;;;;;1787169;78;26339;-54
2022/11/08 03:27:33;;;;;;;0.10;0.10;;;;;;;;;;1783896;80;26241;-53
2022/11/08 03:30:01;;;;;;;1.32;0.20;;;;;;;;;;1791904;78;26655;-54
2022/11/08 03:32:28;;;;;;;0.10;0.10;;;;;;;;;;1783693;80;26296;-50
2022/11/08 03:34:58;;;;;;;0.05;0.05;;;;;;;;;;1792245;79;26588;-52
2022/11/08 03:37:25;;;;;;;0.10;0.10;;;;;;;;;;1790574;79;27352;-55
2022/11/08 03:39:52;;;;;;;0.10;0.10;;;;;;;;;;1792041;78;26343;-53
2022/11/08 03:42:19;;;;;;;0.17;0.17;;;;;;;;;;1779378;78;26357;-51
2022/11/08 03:44:47;;;;;;;0.00;0.00;;;;;;;;;;1777268;80;26263;-52
2022/11/08 03:47:14;;;;;;;0.10;0.10;;;;;;;;;;1791726;80;26378;-53
2022/11/08 03:49:41;;;;;;;0.10;0.10;;;;;;;;;;1791927;78;26946;-52
2022/11/08 03:52:08;;;;;;;0.00;0.00;;;;;;;;;;1791812;78;27533;-53
2022/11/08 03:54:36;;;;;;;0.10;0.10;;;;;;;;;;1782286;78;26727;-51
2022/11/08 03:57:03;;;;;;;0.08;0.08;;;;;;;;;;1790727;78;26796;-53
2022/11/08 03:59:30;;;;;;;7.00;0.33;;;;;;;;;;1792074;80;26280;-53
2022/11/08 04:01:57;;;;;;;0.10;0.10;;;;;;;;;;1788391;80;26278;-51
2022/11/08 04:04:25;;;;;;;0.25;0.10;;;;;;;;;;1786070;78;26229;-51
2022/11/08 04:06:52;;;;;;;0.00;0.00;;;;;;;;;;1793268;79;26365;-54
2022/11/08 04:09:19;;;;;;;0.00;0.00;;;;;;;;;;1784471;78;26298;-53
2022/11/08 04:17:17;;;;;;;0.05;0.05;;;;;;;;;;1789147;80;27314;-54
2022/11/08 04:22:30;;;;;;;0.47;0.23;;;;;;;;;;1786710;80;26316;-55
2022/11/08 04:24:57;;;;;;;0.10;0.10;;;;;;;;;;1778156;80;26236;-55
2022/11/08 04:27:24;;;;;;;0.00;0.00;;;;;;;;;;1786378;78;26359;-55
2022/11/08 04:29:51;;;;;;;0.10;0.00;;;;;;;;;;1791785;78;26332;-54
2022/11/08 04:32:19;;;;;;;0.10;0.10;;;;;;;;;;1791300;80;26354;-55
2022/11/08 04:34:46;;;;;;;0.10;0.10;;;;;;;;;;1791892;80;26277;-54
2022/11/08 04:37:13;;;;;;;0.10;0.00;;;;;;;;;;1786614;80;26274;-53
2022/11/08 04:39:40;;;;;;;0.10;0.10;;;;;;;;;;1773015;78;26293;-55
2022/11/08 04:42:08;;;;;;;0.62;0.10;;;;;;;;;;1792486;78;26764;-54
2022/11/08 04:44:35;;;;;;;0.03;0.03;;;;;;;;;;1784427;78;26525;-53
2022/11/08 04:47:02;;;;;;;0.10;0.10;;;;;;;;;;1778990;80;26395;-55
2022/11/08 04:49:29;;;;;;;0.10;0.10;;;;;;;;;;1787383;80;26325;-51
2022/11/08 04:51:57;;;;;;;0.03;0.03;;;;;;;;;;1792094;80;26328;-53
2022/11/08 04:54:24;;;;;;;0.10;0.10;;;;;;;;;;1800211;78;26323;-51
2022/11/08 04:56:51;;;;;;;0.00;0.00;;;;;;;;;;1796357;80;26288;-54
2022/11/08 04:59:18;;;;;;;0.10;0.10;;;;;;;;;;1793512;80;26289;-52
2022/11/08 05:01:46;;;;;;;0.10;0.10;;;;;;;;;;1784365;80;26288;-55
2022/11/08 05:04:13;;;;;;;0.08;0.08;;;;;;;;;;1793168;80;26320;-53
2022/11/08 05:06:40;;;;;;;0.10;0.10;;;;;;;;;;1795333;80;26886;-54
2022/11/08 05:09:08;;;;;;;0.10;0.10;;;;;;;;;;1795938;80;26843;-53
2022/11/08 05:11:35;;;;;;;0.10;0.10;;;;;;;;;;1792654;80;26300;-55
2022/11/08 05:14:02;;;;;;;0.10;0.10;;;;;;;;;;1795285;80;27198;-55
2022/11/08 05:16:34;;;;;;;1.27;0.10;;;;;;;;;;1793822;80;25421;-55
2022/11/08 05:19:00;;;;;;;0.00;0.00;;;;;;;;;;1794007;80;26339;-55
2022/11/08 05:24:14;;;;;;;0.10;0.10;;;;;;;;;;1795644;79;26234;-55
2022/11/08 05:26:43;;;;;;;0.05;0.05;;;;;;;;;;1793425;79;26296;-54
2022/11/08 05:29:10;;;;;;;0.00;0.00;;;;;;;;;;1791076;79;26899;-55
2022/11/08 05:31:38;;;;;;;0.10;0.10;;;;;;;;;;1793267;79;26284;-56
2022/11/08 05:34:06;;;;;;;0.10;0.10;;;;;;;;;;1795340;79;26391;-55
2022/11/08 05:36:33;;;;;;;1.07;0.10;;;;;;;;;;1794243;79;26310;-56
2022/11/08 05:39:01;;;;;;;0.10;0.10;;;;;;;;;;1796370;79;26678;-56
2022/11/08 05:41:29;;;;;;;0.37;0.10;;;;;;;;;;1785315;79;27147;-55
2022/11/08 05:43:57;;;;;;;1.00;0.10;;;;;;;;;;1794607;80;26424;-55
2022/11/08 05:46:24;;;;;;;0.20;0.20;;;;;;;;;;1797394;79;26834;-56
2022/11/08 05:48:51;;;;;;;0.00;0.00;;;;;;;;;;1788875;79;26284;-55
2022/11/08 05:51:19;;;;;;;0.10;0.10;;;;;;;;;;1793784;79;26707;-54
2022/11/08 05:53:47;;;;;;;0.20;0.10;;;;;;;;;;1795418;79;27645;-53
2022/11/08 05:56:14;;;;;;;0.57;0.08;;;;;;;;;;1811027;79;26288;-55
2022/11/08 05:58:42;;;;;;;0.13;0.13;;;;;;;;;;1810774;79;26355;-52
2022/11/08 06:01:10;;;;;;;0.42;0.20;;;;;;;;;;1811339;78;26815;-51
2022/11/08 06:03:38;;;;;;;0.10;0.10;;;;;;;;;;1810900;79;26349;-55
2022/11/08 06:06:09;;;;;;;0.20;0.20;;;;;;;;;;1811682;78;27294;-52
2022/11/08 06:08:37;;;;;;;0.20;0.20;;;;;;;;;;1808933;79;26275;-54
2022/11/08 06:11:09;;;;;;;0.33;0.10;;;;;;;;;;1811683;79;26323;-51
2022/11/08 06:13:37;;;;;;;0.15;0.15;;;;;;;;;;1808830;79;26823;-54
2022/11/08 06:16:08;;;;;;;0.20;0.20;;;;;;;;;;1811589;79;26310;-53
2022/11/08 06:18:36;;;;;;;0.47;0.20;;;;;;;;;;1807940;78;26288;-54
2022/11/08 06:21:05;;;;;;;0.47;0.20;;;;;;;;;;1808293;79;26293;-53
2022/11/08 06:23:32;;;;;;;0.20;0.20;;;;;;;;;;1809806;79;26342;-54
2022/11/08 06:26:00;;;;;;;0.30;0.20;;;;;;;;;;1805475;78;27864;-55
2022/11/08 06:28:27;;;;;;;0.20;0.20;;;;;;;;;;1799965;78;26252;-55
2022/11/08 06:30:56;;;;;;;0.30;0.30;;;;;;;;;;1812357;78;26244;-56
2022/11/08 06:33:24;;;;;;;0.47;0.20;;;;;;;;;;1813126;79;26275;-56
2022/11/08 06:35:51;;;;;;;0.20;0.20;;;;;;;;;;1807427;79;26309;-55
2022/11/08 06:38:18;;;;;;;0.20;0.20;;;;;;;;;;1811590;78;26222;-56
2022/11/08 06:40:49;;;;;;;0.90;0.30;;;;;;;;;;1813068;79;26756;-55
2022/11/08 06:43:16;;;;;;;0.68;0.20;;;;;;;;;;1806619;79;26280;-53
2022/11/08 06:45:43;;;;;;;0.30;0.30;;;;;;;;;;1809957;79;26310;-56
2022/11/08 06:48:10;;;;;;;1.98;0.50;;;;;;;;;;1808915;78;26759;-58
2022/11/08 06:50:38;;;;;;;1.55;0.40;;;;;;;;;;1812292;79;26938;-58
2022/11/08 06:53:06;;;;;;;1.47;0.40;;;;;;;;;;1812916;78;26888;-58
2022/11/08 06:55:34;;;;;;;1.55;0.40;;;;;;;;;;1812694;78;26386;-57
2022/11/08 06:58:02;;;;;;;2.02;0.62;;;;;;;;;;1811678;79;26679;-57
2022/11/08 07:00:30;;;;;;;0.90;0.30;;;;;;;;;;1810243;78;26688;-56
2022/11/08 07:02:58;;;;;;;2.35;0.30;;;;;;;;;;1811837;79;26268;-57
2022/11/08 07:05:26;;;;;;;0.30;0.30;;;;;;;;;;1812139;78;26271;-50
2022/11/08 07:07:54;;;;;;;0.33;0.33;;;;;;;;;;1812060;79;27472;-54
2022/11/08 07:10:22;;;;;;;0.68;0.20;;;;;;;;;;1814102;78;26272;-54
2022/11/08 07:12:51;;;;;;;0.30;0.30;;;;;;;;;;1812278;79;26445;-55
2022/11/08 07:15:20;;;;;;;0.42;0.20;;;;;;;;;;1802352;79;26823;-55
2022/11/08 07:17:47;;;;;;;0.57;0.30;;;;;;;;;;1803855;78;26378;-59
2022/11/08 07:20:14;;;;;;;0.78;0.30;;;;;;;;;;1806980;79;26327;-52
2022/11/08 07:22:42;;;;;;;0.10;0.10;;;;;;;;;;1807554;79;27240;-53
2022/11/08 07:25:09;;;;;;;0.25;0.25;;;;;;;;;;1795014;78;26297;-53
2022/11/08 07:27:36;;;;;;;0.50;0.25;;;;;;;;;;1811401;79;26764;-54
2022/11/08 07:30:04;;;;;;;0.25;0.23;;;;;;;;;;1812081;78;26775;-54
2022/11/08 07:32:32;;;;;;;0.15;0.15;;;;;;;;;;1806013;78;26325;-55
2022/11/08 07:34:59;;;;;;;0.80;0.30;;;;;;;;;;1811717;79;26269;-51
2022/11/08 07:37:26;;;;;;;0.40;0.17;;;;;;;;;;1811981;79;26360;-53
2022/11/08 07:39:53;;;;;;;0.30;0.30;;;;;;;;;;1803050;79;26372;-55
2022/11/08 07:42:21;;;;;;;0.20;0.20;;;;;;;;;;1811719;79;26282;-55
2022/11/08 07:44:48;;;;;;;0.30;0.20;;;;;;;;;;1811281;79;26303;-53
2022/11/08 07:47:15;;;;;;;0.30;0.30;;;;;;;;;;1805408;79;26374;-55
2022/11/08 07:49:43;;;;;;;0.33;0.20;;;;;;;;;;1810006;79;26213;-53
2022/11/08 07:52:10;;;;;;;0.17;0.17;;;;;;;;;;1810977;79;26218;-53
2022/11/08 07:54:37;;;;;;;0.20;0.20;;;;;;;;;;1800338;78;26262;-53
2022/11/08 07:57:04;;;;;;;1.02;0.20;;;;;;;;;;1785321;80;26272;-56
2022/11/08 07:59:32;;;;;;;0.20;0.20;;;;;;;;;;1790395;80;26292;-55
2022/11/08 08:01:59;;;;;;;0.45;0.20;;;;;;;;;;1790441;78;26300;-54
2022/11/08 08:04:28;;;;;;;0.28;0.20;;;;;;;;;;1791898;79;26340;-55
2022/11/08 08:06:56;;;;;;;0.20;0.20;;;;;;;;;;1788456;80;27697;-57
2022/11/08 08:09:23;;;;;;;0.25;0.25;;;;;;;;;;1782830;80;26328;-58
2022/11/08 08:11:50;;;;;;;0.55;0.25;;;;;;;;;;1778987;80;26424;-59
2022/11/08 08:14:17;;;;;;;1.45;0.20;;;;;;;;;;1781774;80;27383;-60
2022/11/08 08:16:45;;;;;;;0.40;0.20;;;;;;;;;;1780477;78;26301;-56
2022/11/08 08:19:12;;;;;;;1.27;0.20;;;;;;;;;;1782338;78;26387;-56
2022/11/08 08:21:39;;;;;;;0.10;0.10;;;;;;;;;;1778062;78;26273;-56
2022/11/08 08:24:07;;;;;;;0.20;0.20;;;;;;;;;;1778440;80;26368;-53
2022/11/08 08:26:34;;;;;;;0.25;0.25;;;;;;;;;;1780735;80;26359;-58
2022/11/08 08:29:01;;;;;;;0.30;0.30;;;;;;;;;;1781665;80;26355;-53
2022/11/08 08:31:29;;;;;;;0.15;0.15;;;;;;;;;;1779400;78;26277;-52
2022/11/08 08:33:56;;;;;;;0.93;0.30;;;;;;;;;;1780732;80;26364;-55
2022/11/08 08:36:23;;;;;;;0.55;0.30;;;;;;;;;;1782247;78;26822;-55
2022/11/08 08:38:51;;;;;;;1.20;0.35;;;;;;;;;;1778148;80;27420;-55
2022/11/08 08:41:18;;;;;;;0.30;0.30;;;;;;;;;;1777197;80;26304;-54
2022/11/08 08:43:45;;;;;;;0.30;0.20;;;;;;;;;;1782875;80;26386;-54
2022/11/08 08:46:12;;;;;;;1.20;0.30;;;;;;;;;;1783082;79;26289;-58
2022/11/08 08:48:40;;;;;;;0.15;0.15;;;;;;;;;;1778341;80;26302;-57
2022/11/08 08:51:07;;;;;;;0.95;0.30;;;;;;;;;;1781270;80;26918;-58
2022/11/08 08:53:35;;;;;;;0.85;0.28;;;;;;;;;;1779050;80;26358;-56
2022/11/08 08:56:04;;;;;;;0.65;0.20;;;;;;;;;;1769171;80;28469;-52
2022/11/08 08:58:31;;;;;;;0.20;0.20;;;;;;;;;;1788929;80;26315;-56
2022/11/08 09:01:07;;;;;;;0.30;0.30;;;;;;;;;;1788435;80;26314;-56
2022/11/08 09:03:35;;;;;;;0.15;0.15;;;;;;;;;;1787960;80;26419;-55
2022/11/08 09:06:03;;;;;;;0.28;0.23;;;;;;;;;;1787980;80;26522;-56
2022/11/08 09:08:30;;;;;;;0.20;0.20;;;;;;;;;;1785996;80;26312;-53
2022/11/08 09:10:59;;;;;;;0.10;0.10;;;;;;;;;;1786942;80;26674;-57
2022/11/08 09:13:29;;;;;;;0.20;0.20;;;;;;;;;;1786317;80;26774;-58
2022/11/08 09:15:57;;;;;;;0.72;0.20;;;;;;;;;;1786883;80;27361;-57
2022/11/08 09:18:25;;;;;;;0.20;0.20;;;;;;;;;;1786738;80;26277;-57
2022/11/08 09:20:53;;;;;;;0.20;0.20;;;;;;;;;;1785288;80;26713;-53
2022/11/08 09:23:21;;;;;;;0.20;0.20;;;;;;;;;;1787110;80;26943;-56
2022/11/08 09:25:48;;;;;;;0.20;0.20;;;;;;;;;;1787469;80;26349;-55
2022/11/08 09:28:15;;;;;;;0.20;0.20;;;;;;;;;;1788780;80;26293;-50
2022/11/08 09:30:43;;;;;;;0.25;0.25;;;;;;;;;;1792020;80;26285;-52
2022/11/08 09:33:10;;;;;;;0.20;0.20;;;;;;;;;;1785552;80;26348;-55
2022/11/08 09:35:37;;;;;;;0.30;0.30;;;;;;;;;;1787057;78;26331;-51
2022/11/08 09:38:04;;;;;;;0.20;0.20;;;;;;;;;;1786080;78;26399;-55
2022/11/08 09:40:39;;;;;;;0.20;0.20;;;;;;;;;;1784915;80;26333;-59
2022/11/08 09:43:08;;;;;;;0.20;0.20;;;;;;;;;;1790197;80;26769;-58
2022/11/08 09:45:37;;;;;;;0.20;0.20;;;;;;;;;;1789157;80;26883;-59
2022/11/08 09:48:05;;;;;;;0.20;0.17;;;;;;;;;;1786303;79;26868;-58
2022/11/08 09:50:34;;;;;;;0.20;0.20;;;;;;;;;;1785068;80;26278;-58
2022/11/08 09:53:18;;;;;;;0.30;0.30;;;;;;;;;;1785378;80;26875;-58
2022/11/08 09:55:59;;;;;;;0.15;0.15;;;;;;;;;;1788878;80;26837;-59
2022/11/08 09:58:37;;;;;;;0.15;0.15;;;;;;;;;;1789960;80;27835;-61
2022/11/08 10:01:04;;;;;;;0.20;0.10;;;;;;;;;;1787263;80;26326;-59
2022/11/08 10:03:32;;;;;;;0.10;0.10;;;;;;;;;;1786811;80;26278;-61
2022/11/08 10:06:04;;;;;;;0.10;0.10;;;;;;;;;;1784744;80;26368;-60
2022/11/08 10:08:35;;;;;;;0.20;0.20;;;;;;;;;;1776349;80;39311;-57
2022/11/08 10:11:07;;;;;;;0.42;0.30;;;;;;;;;;1783824;80;26298;-59
2022/11/08 10:13:36;;;;;;;0.10;0.10;;;;;;;;;;1786637;80;26412;-59
2022/11/08 10:16:07;;;;;;;0.20;0.20;;;;;;;;;;1787442;80;26322;-59
2022/11/08 10:18:48;;;;;;;0.20;0.20;;;;;;;;;;1789588;80;26901;-57
2022/11/08 10:21:17;;;;;;;0.20;0.20;;;;;;;;;;1782772;78;28407;-56
2022/11/08 10:23:46;;;;;;;0.10;0.10;;;;;;;;;;1785351;80;26289;-57
2022/11/08 10:26:17;;;;;;;0.20;0.20;;;;;;;;;;1785618;78;26358;-56
2022/11/08 10:28:50;;;;;;;0.20;0.20;;;;;;;;;;1786936;78;26304;-57
2022/11/08 10:31:15;;;;;;;0.20;0.20;;;;;;;;;;1789838;78;26832;-59
2022/11/08 10:33:44;;;;;;;0.15;0.15;;;;;;;;;;1790657;78;26296;-59
2022/11/08 10:36:12;;;;;;;0.20;0.20;;;;;;;;;;1789067;80;26332;-58
2022/11/08 10:38:42;;;;;;;0.13;0.13;;;;;;;;;;1785407;80;26282;-61
2022/11/08 10:41:19;;;;;;;0.20;0.20;;;;;;;;;;1784198;80;28299;-65
2022/11/08 10:43:54;;;;;;;3.30;0.30;;;;;;;;;;1787237;80;27370;-57
2022/11/08 10:46:40;;;;;;;0.30;0.30;;;;;;;;;;1788075;80;26366;-55
2022/11/08 10:49:21;;;;;;;0.20;0.20;;;;;;;;;;1790034;78;26430;-57
2022/11/08 10:51:50;;;;;;;1.10;0.30;;;;;;;;;;1786002;80;26389;-59
2022/11/08 10:54:35;;;;;;;0.23;0.23;;;;;;;;;;1786932;79;26350;-59
2022/11/08 10:57:03;;;;;;;0.20;0.20;;;;;;;;;;1782723;80;26387;-58
2022/11/08 10:59:31;;;;;;;0.20;0.20;;;;;;;;;;1779502;80;26278;-58
2022/11/08 11:01:58;;;;;;;0.40;0.30;;;;;;;;;;1779154;80;26288;-58
2022/11/08 11:04:33;;;;;;;0.30;0.30;;;;;;;;;;1779955;80;26342;-58
2022/11/08 11:07:05;;;;;;;1.07;0.23;;;;;;;;;;1780043;79;26317;-58
2022/11/08 11:09:32;;;;;;;0.30;0.30;;;;;;;;;;1775645;78;26319;-59
2022/11/08 11:12:01;;;;;;;1.95;0.40;;;;;;;;;;1780923;80;26344;-59
2022/11/08 11:14:28;;;;;;;0.23;0.23;;;;;;;;;;1778321;78;26368;-59
2022/11/08 11:17:06;;;;;;;0.85;0.10;;;;;;;;;;1778935;78;26392;-59
2022/11/08 11:19:34;;;;;;;0.23;0.23;;;;;;;;;;1781416;78;26305;-59
2022/11/08 11:22:03;;;;;;;0.20;0.20;;;;;;;;;;1777261;80;26414;-59
2022/11/08 11:24:31;;;;;;;0.20;0.20;;;;;;;;;;1776825;80;26772;-59
2022/11/08 11:27:06;;;;;;;0.10;0.10;;;;;;;;;;1780578;78;26289;-59
2022/11/08 11:29:35;;;;;;;0.20;0.20;;;;;;;;;;1779474;80;26782;-58
2022/11/08 11:32:22;;;;;;;0.75;0.25;;;;;;;;;;1780370;79;26966;-59
2022/11/08 11:35:00;;;;;;;0.30;0.30;;;;;;;;;;1778959;78;26314;-59
2022/11/08 11:37:43;;;;;;;0.30;0.30;;;;;;;;;;1780397;80;26289;-59
2022/11/08 11:40:29;;;;;;;0.80;0.30;;;;;;;;;;1784747;78;26784;-59
2022/11/08 11:42:57;;;;;;;0.30;0.30;;;;;;;;;;1778800;80;26300;-59
2022/11/08 11:45:32;;;;;;;0.40;0.40;;;;;;;;;;1779603;78;26349;-59
2022/11/08 11:48:04;;;;;;;0.30;0.30;;;;;;;;;;1780355;80;27370;-59
2022/11/08 11:50:32;;;;;;;0.30;0.30;;;;;;;;;;1782724;80;26773;-59
2022/11/08 11:53:03;;;;;;;0.30;0.30;;;;;;;;;;1779821;80;26735;-59
2022/11/08 11:55:37;;;;;;;0.20;0.20;;;;;;;;;;1780661;80;26419;-59
2022/11/08 11:58:09;;;;;;;0.30;0.30;;;;;;;;;;1762723;78;26375;-59
2022/11/08 12:00:38;;;;;;;0.30;0.30;;;;;;;;;;1759581;81;26347;-59
2022/11/08 12:03:18;;;;;;;0.30;0.30;;;;;;;;;;1759892;80;26362;-58
2022/11/08 12:05:53;;;;;;;0.40;0.40;;;;;;;;;;1761357;81;26402;-59
2022/11/08 12:08:25;;;;;;;0.23;0.23;;;;;;;;;;1762021;81;26914;-59
2022/11/08 12:10:54;;;;;;;0.35;0.35;;;;;;;;;;1760074;81;26394;-59
2022/11/08 12:13:23;;;;;;;0.20;0.20;;;;;;;;;;1761072;81;26390;-59
2022/11/08 12:15:51;;;;;;;1.45;0.40;;;;;;;;;;1727658;81;26299;-59
2022/11/08 12:18:23;;;;;;;0.30;0.30;;;;;;;;;;1761792;81;26359;-59
2022/11/08 12:20:55;;;;;;;0.30;0.30;;;;;;;;;;1760166;80;26351;-59
2022/11/08 12:23:33;;;;;;;0.40;0.30;;;;;;;;;;1759349;80;26370;-60
2022/11/08 12:26:10;;;;;;;0.30;0.30;;;;;;;;;;1758615;81;26847;-60
2022/11/08 12:28:39;;;;;;;0.20;0.20;;;;;;;;;;1759986;80;26315;-59
2022/11/08 12:31:08;;;;;;;0.20;0.20;;;;;;;;;;1759290;80;27239;-59
2022/11/08 12:33:40;;;;;;;0.20;0.20;;;;;;;;;;1758843;80;26375;-59
2022/11/08 12:36:12;;;;;;;0.37;0.37;;;;;;;;;;1724571;81;26410;-59
2022/11/08 12:38:40;;;;;;;0.20;0.20;;;;;;;;;;1763139;77;26414;-58
2022/11/08 12:41:12;;;;;;;0.30;0.30;;;;;;;;;;1811545;78;27795;-58
2022/11/08 12:43:58;;;;;;;0.23;0.23;;;;;;;;;;1810599;78;26326;-59
2022/11/08 12:46:26;;;;;;;0.25;0.25;;;;;;;;;;1809553;78;26384;-57
2022/11/08 12:49:01;;;;;;;0.45;0.45;;;;;;;;;;1806197;78;26355;-57
2022/11/08 12:51:30;;;;;;;0.57;0.50;;;;;;;;;;1776532;78;26319;-53
2022/11/08 12:53:59;;;;;;;0.40;0.40;;;;;;;;;;1803766;78;26413;-55
2022/11/08 12:56:30;;;;;;;0.40;0.40;;;;;;;;;;1811171;78;26282;-56
2022/11/08 12:58:57;;;;;;;0.30;0.30;;;;;;;;;;1806182;78;26750;-51
2022/11/08 13:01:25;;;;;;;0.40;0.40;;;;;;;;;;1804721;78;26323;-54
2022/11/08 13:03:57;;;;;;;0.75;0.50;;;;;;;;;;1811167;78;26990;-55
2022/11/08 13:06:38;;;;;;;0.30;0.30;;;;;;;;;;1802428;78;26357;-57
2022/11/08 13:09:10;;;;;;;0.37;0.37;;;;;;;;;;1811104;78;26334;-57
2022/11/08 13:11:38;;;;;;;0.40;0.40;;;;;;;;;;1806984;78;26239;-57
2022/11/08 13:14:07;;;;;;;0.30;0.30;;;;;;;;;;1808605;78;26250;-57
2022/11/08 13:16:41;;;;;;;2.95;0.45;;;;;;;;;;1807820;78;26396;-57
2022/11/08 13:19:05;;;;;;;0.30;0.30;;;;;;;;;;1804789;78;26291;-56
2022/11/08 13:21:36;;;;;;;0.23;0.23;;;;;;;;;;1804424;78;26330;-54
2022/11/08 13:24:04;;;;;;;0.37;0.30;;;;;;;;;;1806776;78;26548;-57
2022/11/08 13:26:32;;;;;;;0.28;0.28;;;;;;;;;;1806713;78;26264;-59
2022/11/08 13:29:14;;;;;;;0.30;0.30;;;;;;;;;;1809854;78;27030;-56
2022/11/08 13:31:42;;;;;;;0.30;0.30;;;;;;;;;;1805548;78;26326;-59
2022/11/08 13:34:17;;;;;;;0.28;0.28;;;;;;;;;;1810622;78;26343;-59
2022/11/08 13:36:58;;;;;;;0.40;0.40;;;;;;;;;;1805863;78;26301;-60
2022/11/08 13:39:30;;;;;;;0.30;0.30;;;;;;;;;;1807080;78;26583;-60
2022/11/08 13:41:58;;;;;;;1.35;0.40;;;;;;;;;;1807796;78;26322;-60
2022/11/08 13:44:44;;;;;;;0.35;0.35;;;;;;;;;;1808601;78;26281;-58
2022/11/08 13:47:29;;;;;;;0.57;0.40;;;;;;;;;;1807181;78;26854;-58
2022/11/08 13:50:15;;;;;;;0.30;0.30;;;;;;;;;;1802597;78;25781;-58
2022/11/08 13:52:44;;;;;;;1.07;0.20;;;;;;;;;;1810617;78;26337;-58
2022/11/08 13:55:29;;;;;;;0.40;0.40;;;;;;;;;;1805206;78;26334;-58
2022/11/08 13:57:58;;;;;;;0.33;0.33;;;;;;;;;;1806518;78;26372;-53
2022/11/08 14:00:33;;;;;;;0.37;0.30;;;;;;;;;;1807845;78;26314;-50
2022/11/08 14:03:00;;;;;;;0.50;0.30;;;;;;;;;;1809482;78;26317;-52
2022/11/08 14:05:28;;;;;;;0.30;0.30;;;;;;;;;;1816189;78;26674;-57
2022/11/08 14:08:00;;;;;;;1.12;0.33;;;;;;;;;;1809410;78;26785;-59
2022/11/08 14:10:29;;;;;;;0.33;0.23;;;;;;;;;;1801051;78;26321;-59
2022/11/08 14:13:14;;;;;;;0.42;0.40;;;;;;;;;;1809234;78;26322;-58
2022/11/08 14:15:52;;;;;;;0.40;0.40;;;;;;;;;;1807914;78;26783;-54
2022/11/08 14:18:29;;;;;;;2.42;0.30;;;;;;;;;;1804746;78;27368;-58
2022/11/08 14:20:57;;;;;;;2.05;0.40;;;;;;;;;;1804305;78;26267;-59
2022/11/08 14:23:28;;;;;;;1.55;0.33;;;;;;;;;;1809293;78;26278;-57
2022/11/08 14:25:57;;;;;;;0.40;0.40;;;;;;;;;;1802855;78;26306;-58
2022/11/08 14:28:29;;;;;;;0.20;0.20;;;;;;;;;;1807577;78;26368;-62
2022/11/08 14:30:57;;;;;;;0.30;0.30;;;;;;;;;;1804995;78;27546;-60
2022/11/08 14:33:25;;;;;;;0.30;0.28;;;;;;;;;;1809752;78;26317;-56
2022/11/08 14:36:03;;;;;;;1.07;0.15;;;;;;;;;;1812335;78;26385;-58
2022/11/08 14:38:32;;;;;;;0.28;0.28;;;;;;;;;;1805377;78;26291;-61
2022/11/08 14:41:03;;;;;;;1.27;0.30;;;;;;;;;;1802151;78;26378;-59
2022/11/08 14:43:32;;;;;;;0.20;0.20;;;;;;;;;;1805282;78;26850;-59
2022/11/08 14:46:01;;;;;;;1.20;0.30;;;;;;;;;;1803039;78;26829;-64
2022/11/08 14:48:30;;;;;;;1.50;0.40;;;;;;;;;;1806407;78;26785;-59
2022/11/08 14:50:58;;;;;;;0.20;0.20;;;;;;;;;;1807121;78;27362;-60
2022/11/08 14:53:27;;;;;;;2.08;0.30;;;;;;;;;;1804131;78;26285;-63
2022/11/08 14:56:04;;;;;;;0.30;0.30;;;;;;;;;;1805494;78;26311;-56
2022/11/08 14:58:32;;;;;;;0.20;0.20;;;;;;;;;;1790561;78;26751;-64
2022/11/08 15:01:00;;;;;;;0.30;0.30;;;;;;;;;;1805761;78;27445;-62
2022/11/08 15:03:29;;;;;;;0.70;0.30;;;;;;;;;;1793632;78;26352;-59
2022/11/08 15:05:58;;;;;;;0.23;0.23;;;;;;;;;;1806254;78;26252;-58
2022/11/08 15:08:27;;;;;;;0.30;0.30;;;;;;;;;;1806976;78;26260;-58
2022/11/08 15:11:02;;;;;;;0.25;0.25;;;;;;;;;;1799607;78;26334;-58
2022/11/08 15:13:31;;;;;;;1.67;0.80;;;;;;;;;;1807312;78;26271;-51
2022/11/08 15:16:02;;;;;;;0.70;0.70;;;;;;;;;;1801367;78;26281;-56